sensor_id;sensor_type;location;lat;lon;timestamp;P1;durP1;ratioP1;P2;durP2;ratioP2
69799;SDS011;67217;51.008;4.644;2023-02-13T00:00:52;65.28;;;34.90;;
69799;SDS011;67217;51.008;4.644;2023-02-13T00:03:20;64.53;;;33.70;;
69799;SDS011;67217;51.008;4.644;2023-02-13T00:05:48;77.10;;;38.55;;
69799;SDS011;67217;51.008;4.644;2023-02-13T00:08:16;71.82;;;38.28;;
69799;SDS011;67217;51.008;4.644;2023-02-13T00:10:44;79.85;;;40.73;;
69799;SDS011;67217;51.008;4.644;2023-02-13T00:13:13;84.25;;;42.30;;
69799;SDS011;67217;51.008;4.644;2023-02-13T00:15:41;77.62;;;40.60;;
69799;SDS011;67217;51.008;4.644;2023-02-13T00:18:09;83.78;;;41.13;;
69799;SDS011;67217;51.008;4.644;2023-02-13T00:20:37;81.12;;;38.92;;
69799;SDS011;67217;51.008;4.644;2023-02-13T00:23:05;85.85;;;41.10;;
69799;SDS011;67217;51.008;4.644;2023-02-13T00:25:33;69.70;;;37.50;;
69799;SDS011;67217;51.008;4.644;2023-02-13T00:28:00;69.77;;;35.40;;
69799;SDS011;67217;51.008;4.644;2023-02-13T00:30:28;68.33;;;36.00;;
69799;SDS011;67217;51.008;4.644;2023-02-13T00:32:56;69.22;;;37.35;;
69799;SDS011;67217;51.008;4.644;2023-02-13T00:35:24;75.12;;;38.90;;
69799;SDS011;67217;51.008;4.644;2023-02-13T00:37:52;72.22;;;38.10;;
69799;SDS011;67217;51.008;4.644;2023-02-13T00:40:20;73.57;;;37.83;;
69799;SDS011;67217;51.008;4.644;2023-02-13T00:42:48;75.00;;;38.48;;
69799;SDS011;67217;51.008;4.644;2023-02-13T00:45:16;82.97;;;41.42;;
69799;SDS011;67217;51.008;4.644;2023-02-13T00:47:44;78.85;;;39.95;;
69799;SDS011;67217;51.008;4.644;2023-02-13T00:50:12;73.78;;;37.85;;
69799;SDS011;67217;51.008;4.644;2023-02-13T00:52:40;78.35;;;40.28;;
69799;SDS011;67217;51.008;4.644;2023-02-13T00:55:08;74.12;;;38.20;;
69799;SDS011;67217;51.008;4.644;2023-02-13T00:57:36;67.05;;;35.33;;
69799;SDS011;67217;51.008;4.644;2023-02-13T01:00:04;60.40;;;32.50;;
69799;SDS011;67217;51.008;4.644;2023-02-13T01:02:33;59.53;;;31.82;;
69799;SDS011;67217;51.008;4.644;2023-02-13T01:05:01;57.48;;;31.23;;
69799;SDS011;67217;51.008;4.644;2023-02-13T01:07:29;61.80;;;33.50;;
69799;SDS011;67217;51.008;4.644;2023-02-13T01:09:57;72.95;;;37.03;;
69799;SDS011;67217;51.008;4.644;2023-02-13T01:12:25;64.37;;;34.65;;
69799;SDS011;67217;51.008;4.644;2023-02-13T01:14:53;67.53;;;34.78;;
69799;SDS011;67217;51.008;4.644;2023-02-13T01:17:21;73.42;;;36.33;;
69799;SDS011;67217;51.008;4.644;2023-02-13T01:19:48;70.75;;;35.63;;
69799;SDS011;67217;51.008;4.644;2023-02-13T01:22:17;74.37;;;38.10;;
69799;SDS011;67217;51.008;4.644;2023-02-13T01:24:45;74.82;;;37.67;;
69799;SDS011;67217;51.008;4.644;2023-02-13T01:27:12;76.35;;;38.28;;
69799;SDS011;67217;51.008;4.644;2023-02-13T01:29:41;77.27;;;38.08;;
69799;SDS011;67217;51.008;4.644;2023-02-13T01:32:09;73.07;;;37.63;;
69799;SDS011;67217;51.008;4.644;2023-02-13T01:34:36;79.47;;;37.30;;
69799;SDS011;67217;51.008;4.644;2023-02-13T01:37:04;75.28;;;37.80;;
69799;SDS011;67217;51.008;4.644;2023-02-13T01:39:32;75.12;;;38.02;;
69799;SDS011;67217;51.008;4.644;2023-02-13T01:41:59;77.67;;;37.48;;
69799;SDS011;67217;51.008;4.644;2023-02-13T01:44:44;70.28;;;37.03;;
69799;SDS011;67217;51.008;4.644;2023-02-13T01:47:15;72.97;;;36.60;;
69799;SDS011;67217;51.008;4.644;2023-02-13T01:50:07;76.82;;;36.70;;
69799;SDS011;67217;51.008;4.644;2023-02-13T01:52:39;74.17;;;36.77;;
69799;SDS011;67217;51.008;4.644;2023-02-13T01:55:09;68.87;;;34.73;;
69799;SDS011;67217;51.008;4.644;2023-02-13T01:57:39;78.78;;;37.70;;
69799;SDS011;67217;51.008;4.644;2023-02-13T02:00:10;78.47;;;37.28;;
69799;SDS011;67217;51.008;4.644;2023-02-13T02:02:43;74.60;;;37.03;;
69799;SDS011;67217;51.008;4.644;2023-02-13T02:05:12;74.25;;;36.90;;
69799;SDS011;67217;51.008;4.644;2023-02-13T02:07:41;71.42;;;34.75;;
69799;SDS011;67217;51.008;4.644;2023-02-13T02:10:17;73.62;;;35.20;;
69799;SDS011;67217;51.008;4.644;2023-02-13T02:12:46;76.45;;;37.15;;
69799;SDS011;67217;51.008;4.644;2023-02-13T02:15:34;75.28;;;35.78;;
69799;SDS011;67217;51.008;4.644;2023-02-13T02:18:02;78.80;;;37.85;;
69799;SDS011;67217;51.008;4.644;2023-02-13T02:20:38;83.07;;;38.10;;
69799;SDS011;67217;51.008;4.644;2023-02-13T02:37:37;134.82;;;49.42;;
69799;SDS011;67217;51.008;4.644;2023-02-13T02:40:17;133.12;;;48.63;;
69799;SDS011;67217;51.008;4.644;2023-02-13T02:48:04;376.45;;;51.90;;
69799;SDS011;67217;51.008;4.644;2023-02-13T02:51:10;460.67;;;52.00;;
69799;SDS011;67217;51.008;4.644;2023-02-13T02:54:00;553.17;;;53.55;;
69799;SDS011;67217;51.008;4.644;2023-02-13T02:56:36;360.15;;;50.98;;
69799;SDS011;67217;51.008;4.644;2023-02-13T02:59:09;423.25;;;49.58;;
69799;SDS011;67217;51.008;4.644;2023-02-13T03:01:54;500.42;;;46.18;;
69799;SDS011;67217;51.008;4.644;2023-02-13T03:04:41;346.23;;;44.98;;
69799;SDS011;67217;51.008;4.644;2023-02-13T03:07:33;261.40;;;44.05;;
69799;SDS011;67217;51.008;4.644;2023-02-13T03:10:03;322.48;;;45.20;;
69799;SDS011;67217;51.008;4.644;2023-02-13T03:12:53;135.63;;;42.33;;
69799;SDS011;67217;51.008;4.644;2023-02-13T03:15:41;226.42;;;43.33;;
69799;SDS011;67217;51.008;4.644;2023-02-13T03:18:29;609.85;;;48.98;;
69799;SDS011;67217;51.008;4.644;2023-02-13T03:21:30;406.35;;;46.15;;
69799;SDS011;67217;51.008;4.644;2023-02-13T03:24:16;371.60;;;46.13;;
69799;SDS011;67217;51.008;4.644;2023-02-13T03:29:43;450.27;;;46.88;;
69799;SDS011;67217;51.008;4.644;2023-02-13T03:32:40;522.02;;;49.23;;
69799;SDS011;67217;51.008;4.644;2023-02-13T03:38:34;424.45;;;46.18;;
69799;SDS011;67217;51.008;4.644;2023-02-13T03:41:06;376.77;;;45.78;;
69799;SDS011;67217;51.008;4.644;2023-02-13T03:44:02;475.83;;;49.90;;
69799;SDS011;67217;51.008;4.644;2023-02-13T03:46:47;330.87;;;46.85;;
69799;SDS011;67217;51.008;4.644;2023-02-13T03:49:25;194.32;;;44.73;;
69799;SDS011;67217;51.008;4.644;2023-02-13T03:52:10;170.17;;;44.80;;
69799;SDS011;67217;51.008;4.644;2023-02-13T03:55:03;123.28;;;43.08;;
69799;SDS011;67217;51.008;4.644;2023-02-13T03:57:53;175.40;;;47.38;;
69799;SDS011;67217;51.008;4.644;2023-02-13T04:00:40;157.93;;;46.60;;
69799;SDS011;67217;51.008;4.644;2023-02-13T04:08:38;271.68;;;51.48;;
69799;SDS011;67217;51.008;4.644;2023-02-13T04:11:08;687.62;;;58.55;;
69799;SDS011;67217;51.008;4.644;2023-02-13T04:13:49;467.27;;;55.23;;
69799;SDS011;67217;51.008;4.644;2023-02-13T04:16:21;401.40;;;56.33;;
69799;SDS011;67217;51.008;4.644;2023-02-13T04:18:48;204.32;;;51.73;;
69799;SDS011;67217;51.008;4.644;2023-02-13T04:21:18;164.32;;;50.40;;
69799;SDS011;67217;51.008;4.644;2023-02-13T04:23:45;221.20;;;50.50;;
69799;SDS011;67217;51.008;4.644;2023-02-13T04:26:15;608.80;;;57.43;;
69799;SDS011;67217;51.008;4.644;2023-02-13T04:28:44;339.65;;;51.20;;
69799;SDS011;67217;51.008;4.644;2023-02-13T04:31:12;428.50;;;53.00;;
69799;SDS011;67217;51.008;4.644;2023-02-13T04:33:40;447.37;;;53.17;;
69799;SDS011;67217;51.008;4.644;2023-02-13T04:36:08;789.55;;;57.70;;
69799;SDS011;67217;51.008;4.644;2023-02-13T04:38:36;347.05;;;50.00;;
69799;SDS011;67217;51.008;4.644;2023-02-13T04:41:04;572.60;;;52.08;;
69799;SDS011;67217;51.008;4.644;2023-02-13T04:43:32;461.65;;;52.73;;
69799;SDS011;67217;51.008;4.644;2023-02-13T04:46:00;333.20;;;44.65;;
69799;SDS011;67217;51.008;4.644;2023-02-13T04:48:28;329.85;;;39.60;;
69799;SDS011;67217;51.008;4.644;2023-02-13T04:50:56;238.75;;;37.35;;
69799;SDS011;67217;51.008;4.644;2023-02-13T04:53:24;168.10;;;35.95;;
69799;SDS011;67217;51.008;4.644;2023-02-13T04:55:52;161.62;;;34.10;;
69799;SDS011;67217;51.008;4.644;2023-02-13T04:58:20;144.30;;;35.17;;
69799;SDS011;67217;51.008;4.644;2023-02-13T05:00:48;130.00;;;33.78;;
69799;SDS011;67217;51.008;4.644;2023-02-13T05:03:16;170.72;;;34.63;;
69799;SDS011;67217;51.008;4.644;2023-02-13T05:05:44;77.42;;;31.77;;
69799;SDS011;67217;51.008;4.644;2023-02-13T05:08:12;89.58;;;33.00;;
69799;SDS011;67217;51.008;4.644;2023-02-13T05:10:39;93.30;;;30.75;;
69799;SDS011;67217;51.008;4.644;2023-02-13T05:13:07;91.95;;;31.62;;
69799;SDS011;67217;51.008;4.644;2023-02-13T05:15:35;87.15;;;30.15;;
69799;SDS011;67217;51.008;4.644;2023-02-13T05:18:03;68.92;;;29.87;;
69799;SDS011;67217;51.008;4.644;2023-02-13T05:20:31;71.45;;;29.65;;
69799;SDS011;67217;51.008;4.644;2023-02-13T05:22:58;68.52;;;29.15;;
69799;SDS011;67217;51.008;4.644;2023-02-13T05:25:44;83.33;;;30.08;;
69799;SDS011;67217;51.008;4.644;2023-02-13T05:28:12;79.95;;;29.25;;
69799;SDS011;67217;51.008;4.644;2023-02-13T05:30:58;72.67;;;27.98;;
69799;SDS011;67217;51.008;4.644;2023-02-13T05:33:26;83.05;;;28.23;;
69799;SDS011;67217;51.008;4.644;2023-02-13T05:35:54;72.58;;;30.48;;
69799;SDS011;67217;51.008;4.644;2023-02-13T05:38:22;83.85;;;29.37;;
69799;SDS011;67217;51.008;4.644;2023-02-13T05:40:50;78.22;;;28.38;;
69799;SDS011;67217;51.008;4.644;2023-02-13T05:43:18;61.77;;;28.50;;
69799;SDS011;67217;51.008;4.644;2023-02-13T05:45:46;90.15;;;30.35;;
69799;SDS011;67217;51.008;4.644;2023-02-13T05:48:13;73.07;;;29.63;;
69799;SDS011;67217;51.008;4.644;2023-02-13T05:50:41;83.03;;;30.05;;
69799;SDS011;67217;51.008;4.644;2023-02-13T05:53:11;59.48;;;28.95;;
69799;SDS011;67217;51.008;4.644;2023-02-13T05:55:38;67.37;;;30.27;;
69799;SDS011;67217;51.008;4.644;2023-02-13T05:58:06;77.90;;;29.23;;
69799;SDS011;67217;51.008;4.644;2023-02-13T06:00:36;72.82;;;30.05;;
69799;SDS011;67217;51.008;4.644;2023-02-13T06:03:04;54.23;;;28.80;;
69799;SDS011;67217;51.008;4.644;2023-02-13T06:05:32;49.40;;;28.95;;
69799;SDS011;67217;51.008;4.644;2023-02-13T06:08:00;49.40;;;27.82;;
69799;SDS011;67217;51.008;4.644;2023-02-13T06:10:28;67.22;;;29.37;;
69799;SDS011;67217;51.008;4.644;2023-02-13T06:12:56;65.62;;;28.70;;
69799;SDS011;67217;51.008;4.644;2023-02-13T06:15:23;44.45;;;27.62;;
69799;SDS011;67217;51.008;4.644;2023-02-13T06:17:51;46.85;;;28.27;;
69799;SDS011;67217;51.008;4.644;2023-02-13T06:20:19;46.48;;;27.82;;
69799;SDS011;67217;51.008;4.644;2023-02-13T06:22:50;44.48;;;27.52;;
69799;SDS011;67217;51.008;4.644;2023-02-13T06:25:19;46.25;;;27.85;;
69799;SDS011;67217;51.008;4.644;2023-02-13T06:27:47;49.83;;;28.98;;
69799;SDS011;67217;51.008;4.644;2023-02-13T06:30:15;52.95;;;30.85;;
69799;SDS011;67217;51.008;4.644;2023-02-13T06:32:44;51.18;;;29.70;;
69799;SDS011;67217;51.008;4.644;2023-02-13T06:35:13;47.48;;;28.07;;
69799;SDS011;67217;51.008;4.644;2023-02-13T06:37:41;47.23;;;28.12;;
69799;SDS011;67217;51.008;4.644;2023-02-13T06:40:09;47.62;;;29.25;;
69799;SDS011;67217;51.008;4.644;2023-02-13T06:42:43;48.23;;;27.52;;
69799;SDS011;67217;51.008;4.644;2023-02-13T06:45:10;46.98;;;28.23;;
69799;SDS011;67217;51.008;4.644;2023-02-13T06:47:44;46.48;;;27.62;;
69799;SDS011;67217;51.008;4.644;2023-02-13T06:50:12;50.70;;;30.10;;
69799;SDS011;67217;51.008;4.644;2023-02-13T06:52:45;46.70;;;28.32;;
69799;SDS011;67217;51.008;4.644;2023-02-13T06:55:13;44.00;;;27.13;;
69799;SDS011;67217;51.008;4.644;2023-02-13T06:57:41;43.52;;;27.13;;
69799;SDS011;67217;51.008;4.644;2023-02-13T07:00:10;48.30;;;29.30;;
69799;SDS011;67217;51.008;4.644;2023-02-13T07:02:39;33.08;;;20.25;;
69799;SDS011;67217;51.008;4.644;2023-02-13T07:05:08;45.17;;;26.90;;
69799;SDS011;67217;51.008;4.644;2023-02-13T07:07:37;43.80;;;26.93;;
69799;SDS011;67217;51.008;4.644;2023-02-13T07:10:07;45.73;;;26.97;;
69799;SDS011;67217;51.008;4.644;2023-02-13T07:12:36;44.58;;;25.75;;
69799;SDS011;67217;51.008;4.644;2023-02-13T07:15:05;46.10;;;27.00;;
69799;SDS011;67217;51.008;4.644;2023-02-13T07:17:33;44.95;;;27.67;;
69799;SDS011;67217;51.008;4.644;2023-02-13T07:20:01;49.10;;;28.15;;
69799;SDS011;67217;51.008;4.644;2023-02-13T07:22:31;46.48;;;28.57;;
69799;SDS011;67217;51.008;4.644;2023-02-13T07:24:59;44.50;;;27.30;;
69799;SDS011;67217;51.008;4.644;2023-02-13T07:27:27;46.25;;;26.73;;
69799;SDS011;67217;51.008;4.644;2023-02-13T07:29:55;49.83;;;28.65;;
69799;SDS011;67217;51.008;4.644;2023-02-13T07:32:24;45.63;;;27.75;;
69799;SDS011;67217;51.008;4.644;2023-02-13T07:34:51;44.10;;;27.15;;
69799;SDS011;67217;51.008;4.644;2023-02-13T07:37:19;47.25;;;27.82;;
69799;SDS011;67217;51.008;4.644;2023-02-13T07:39:47;52.10;;;29.10;;
69799;SDS011;67217;51.008;4.644;2023-02-13T07:42:15;49.33;;;29.30;;
69799;SDS011;67217;51.008;4.644;2023-02-13T07:44:42;53.10;;;30.45;;
69799;SDS011;67217;51.008;4.644;2023-02-13T07:47:10;51.68;;;30.60;;
69799;SDS011;67217;51.008;4.644;2023-02-13T07:49:38;51.33;;;30.02;;
69799;SDS011;67217;51.008;4.644;2023-02-13T07:52:06;48.38;;;29.98;;
69799;SDS011;67217;51.008;4.644;2023-02-13T07:54:34;52.38;;;29.50;;
69799;SDS011;67217;51.008;4.644;2023-02-13T07:57:04;45.52;;;28.12;;
69799;SDS011;67217;51.008;4.644;2023-02-13T07:59:32;50.75;;;28.95;;
69799;SDS011;67217;51.008;4.644;2023-02-13T08:02:01;50.45;;;30.48;;
69799;SDS011;67217;51.008;4.644;2023-02-13T08:04:29;53.33;;;30.88;;
69799;SDS011;67217;51.008;4.644;2023-02-13T08:06:57;49.05;;;30.23;;
69799;SDS011;67217;51.008;4.644;2023-02-13T08:09:25;49.77;;;28.23;;
69799;SDS011;67217;51.008;4.644;2023-02-13T08:12:11;50.23;;;29.48;;
69799;SDS011;67217;51.008;4.644;2023-02-13T08:14:38;49.38;;;30.57;;
69799;SDS011;67217;51.008;4.644;2023-02-13T08:17:08;50.33;;;30.68;;
69799;SDS011;67217;51.008;4.644;2023-02-13T08:19:36;53.05;;;30.15;;
69799;SDS011;67217;51.008;4.644;2023-02-13T08:22:04;52.53;;;31.05;;
69799;SDS011;67217;51.008;4.644;2023-02-13T08:24:32;53.30;;;28.83;;
69799;SDS011;67217;51.008;4.644;2023-02-13T08:26:59;48.55;;;30.17;;
69799;SDS011;67217;51.008;4.644;2023-02-13T08:29:27;45.52;;;29.25;;
69799;SDS011;67217;51.008;4.644;2023-02-13T08:31:55;50.08;;;32.42;;
69799;SDS011;67217;51.008;4.644;2023-02-13T08:34:23;48.73;;;30.90;;
69799;SDS011;67217;51.008;4.644;2023-02-13T08:36:51;53.15;;;32.90;;
69799;SDS011;67217;51.008;4.644;2023-02-13T08:39:19;51.48;;;32.25;;
69799;SDS011;67217;51.008;4.644;2023-02-13T08:41:47;49.53;;;30.90;;
69799;SDS011;67217;51.008;4.644;2023-02-13T08:44:15;49.10;;;29.95;;
69799;SDS011;67217;51.008;4.644;2023-02-13T08:46:43;50.03;;;30.25;;
69799;SDS011;67217;51.008;4.644;2023-02-13T08:49:11;51.30;;;32.00;;
69799;SDS011;67217;51.008;4.644;2023-02-13T08:51:39;50.28;;;30.20;;
69799;SDS011;67217;51.008;4.644;2023-02-13T08:54:07;52.73;;;32.17;;
69799;SDS011;67217;51.008;4.644;2023-02-13T08:56:36;56.92;;;33.75;;
69799;SDS011;67217;51.008;4.644;2023-02-13T08:59:04;61.18;;;32.48;;
69799;SDS011;67217;51.008;4.644;2023-02-13T09:01:32;68.07;;;36.25;;
69799;SDS011;67217;51.008;4.644;2023-02-13T09:04:00;72.90;;;36.63;;
69799;SDS011;67217;51.008;4.644;2023-02-13T09:06:28;69.95;;;36.95;;
69799;SDS011;67217;51.008;4.644;2023-02-13T09:08:56;65.00;;;35.83;;
69799;SDS011;67217;51.008;4.644;2023-02-13T09:11:24;71.02;;;36.30;;
69799;SDS011;67217;51.008;4.644;2023-02-13T09:13:52;76.53;;;36.60;;
69799;SDS011;67217;51.008;4.644;2023-02-13T09:16:20;69.12;;;35.92;;
69799;SDS011;67217;51.008;4.644;2023-02-13T09:18:49;61.68;;;34.60;;
69799;SDS011;67217;51.008;4.644;2023-02-13T09:21:20;67.42;;;35.33;;
69799;SDS011;67217;51.008;4.644;2023-02-13T09:23:48;64.92;;;34.63;;
69799;SDS011;67217;51.008;4.644;2023-02-13T09:26:17;69.70;;;36.83;;
69799;SDS011;67217;51.008;4.644;2023-02-13T09:28:46;60.80;;;32.23;;
69799;SDS011;67217;51.008;4.644;2023-02-13T09:31:14;52.65;;;31.00;;
69799;SDS011;67217;51.008;4.644;2023-02-13T09:33:46;53.25;;;30.20;;
69799;SDS011;67217;51.008;4.644;2023-02-13T09:36:17;49.88;;;29.57;;
69799;SDS011;67217;51.008;4.644;2023-02-13T09:38:46;48.28;;;28.47;;
69799;SDS011;67217;51.008;4.644;2023-02-13T09:41:17;57.23;;;30.20;;
69799;SDS011;67217;51.008;4.644;2023-02-13T09:43:54;47.10;;;28.50;;
69799;SDS011;67217;51.008;4.644;2023-02-13T09:46:28;52.67;;;29.30;;
69799;SDS011;67217;51.008;4.644;2023-02-13T09:48:58;51.33;;;29.07;;
69799;SDS011;67217;51.008;4.644;2023-02-13T09:51:28;49.15;;;27.73;;
69799;SDS011;67217;51.008;4.644;2023-02-13T09:54:00;50.67;;;27.77;;
69799;SDS011;67217;51.008;4.644;2023-02-13T09:59:35;45.00;;;25.82;;
69799;SDS011;67217;51.008;4.644;2023-02-13T10:02:22;51.28;;;28.25;;
69799;SDS011;67217;51.008;4.644;2023-02-13T10:07:47;48.02;;;27.55;;
69799;SDS011;67217;51.008;4.644;2023-02-13T10:10:26;51.60;;;29.90;;
69799;SDS011;67217;51.008;4.644;2023-02-13T10:15:46;45.63;;;27.17;;
69799;SDS011;67217;51.008;4.644;2023-02-13T10:18:13;46.60;;;25.82;;
69799;SDS011;67217;51.008;4.644;2023-02-13T10:20:50;44.23;;;26.35;;
69799;SDS011;67217;51.008;4.644;2023-02-13T10:23:21;42.27;;;26.00;;
69799;SDS011;67217;51.008;4.644;2023-02-13T10:28:39;38.75;;;24.45;;
69799;SDS011;67217;51.008;4.644;2023-02-13T10:31:06;37.50;;;23.50;;
69799;SDS011;67217;51.008;4.644;2023-02-13T10:33:57;37.83;;;23.45;;
69799;SDS011;67217;51.008;4.644;2023-02-13T10:36:33;34.73;;;21.62;;
69799;SDS011;67217;51.008;4.644;2023-02-13T10:39:04;35.83;;;21.23;;
69799;SDS011;67217;51.008;4.644;2023-02-13T10:41:39;35.33;;;20.80;;
69799;SDS011;67217;51.008;4.644;2023-02-13T10:58:21;26.87;;;16.57;;
69799;SDS011;67217;51.008;4.644;2023-02-13T11:01:07;24.50;;;15.53;;
69799;SDS011;67217;51.008;4.644;2023-02-13T11:03:39;27.25;;;16.02;;
69799;SDS011;67217;51.008;4.644;2023-02-13T11:06:07;24.37;;;16.12;;
69799;SDS011;67217;51.008;4.644;2023-02-13T11:08:38;23.57;;;15.05;;
69799;SDS011;67217;51.008;4.644;2023-02-13T11:14:07;24.77;;;16.50;;
69799;SDS011;67217;51.008;4.644;2023-02-13T11:16:46;26.27;;;15.45;;
69799;SDS011;67217;51.008;4.644;2023-02-13T11:19:23;24.85;;;16.15;;
69799;SDS011;67217;51.008;4.644;2023-02-13T11:21:45;26.45;;;16.50;;
69799;SDS011;67217;51.008;4.644;2023-02-13T11:24:24;27.27;;;16.25;;
69799;SDS011;67217;51.008;4.644;2023-02-13T11:27:11;24.00;;;15.68;;
69799;SDS011;67217;51.008;4.644;2023-02-13T11:29:28;21.37;;;14.55;;
69799;SDS011;67217;51.008;4.644;2023-02-13T11:32:02;20.55;;;13.75;;
69799;SDS011;67217;51.008;4.644;2023-02-13T11:34:31;18.42;;;13.05;;
69799;SDS011;67217;51.008;4.644;2023-02-13T11:39:43;14.90;;;11.80;;
69799;SDS011;67217;51.008;4.644;2023-02-13T11:45:02;13.70;;;11.25;;
69799;SDS011;67217;51.008;4.644;2023-02-13T11:47:49;13.70;;;9.75;;
69799;SDS011;67217;51.008;4.644;2023-02-13T11:50:25;11.37;;;9.07;;
69799;SDS011;67217;51.008;4.644;2023-02-13T11:55:29;11.43;;;9.28;;
69799;SDS011;67217;51.008;4.644;2023-02-13T11:58:02;12.20;;;9.95;;
69799;SDS011;67217;51.008;4.644;2023-02-13T12:00:33;11.40;;;10.08;;
69799;SDS011;67217;51.008;4.644;2023-02-13T12:03:24;13.60;;;10.98;;
69799;SDS011;67217;51.008;4.644;2023-02-13T12:06:04;14.40;;;10.43;;
69799;SDS011;67217;51.008;4.644;2023-02-13T12:08:37;11.48;;;9.38;;
69799;SDS011;67217;51.008;4.644;2023-02-13T12:11:19;12.47;;;9.65;;
69799;SDS011;67217;51.008;4.644;2023-02-13T12:13:48;10.90;;;8.73;;
69799;SDS011;67217;51.008;4.644;2023-02-13T12:16:30;12.93;;;10.18;;
69799;SDS011;67217;51.008;4.644;2023-02-13T12:19:02;12.45;;;9.93;;
69799;SDS011;67217;51.008;4.644;2023-02-13T12:27:36;14.68;;;11.45;;
69799;SDS011;67217;51.008;4.644;2023-02-13T12:47:14;15.32;;;11.00;;
69799;SDS011;67217;51.008;4.644;2023-02-13T13:00:21;13.08;;;9.73;;
69799;SDS011;67217;51.008;4.644;2023-02-13T13:03:05;14.23;;;9.93;;
69799;SDS011;67217;51.008;4.644;2023-02-13T13:05:50;12.88;;;9.18;;
69799;SDS011;67217;51.008;4.644;2023-02-13T13:16:17;10.30;;;8.15;;
69799;SDS011;67217;51.008;4.644;2023-02-13T13:18:46;12.10;;;9.23;;
69799;SDS011;67217;51.008;4.644;2023-02-13T13:21:25;11.38;;;8.63;;
69799;SDS011;67217;51.008;4.644;2023-02-13T13:24:17;10.43;;;8.60;;
69799;SDS011;67217;51.008;4.644;2023-02-13T13:26:46;9.90;;;7.92;;
69799;SDS011;67217;51.008;4.644;2023-02-13T13:29:24;10.30;;;8.50;;
69799;SDS011;67217;51.008;4.644;2023-02-13T13:31:58;9.63;;;7.33;;
69799;SDS011;67217;51.008;4.644;2023-02-13T13:34:24;9.48;;;7.22;;
69799;SDS011;67217;51.008;4.644;2023-02-13T13:39:47;10.63;;;7.72;;
69799;SDS011;67217;51.008;4.644;2023-02-13T13:42:25;10.10;;;7.78;;
69799;SDS011;67217;51.008;4.644;2023-02-13T13:45:06;8.83;;;7.72;;
69799;SDS011;67217;51.008;4.644;2023-02-13T13:48:05;8.68;;;7.30;;
69799;SDS011;67217;51.008;4.644;2023-02-13T13:50:35;9.88;;;7.03;;
69799;SDS011;67217;51.008;4.644;2023-02-13T13:53:10;11.83;;;7.40;;
69799;SDS011;67217;51.008;4.644;2023-02-13T13:58:30;8.63;;;6.87;;
69799;SDS011;67217;51.008;4.644;2023-02-13T14:03:54;9.03;;;6.67;;
69799;SDS011;67217;51.008;4.644;2023-02-13T14:06:27;8.88;;;7.10;;
69799;SDS011;67217;51.008;4.644;2023-02-13T14:09:55;9.73;;;7.10;;
69799;SDS011;67217;51.008;4.644;2023-02-13T14:11:55;9.50;;;7.17;;
69799;SDS011;67217;51.008;4.644;2023-02-13T14:16:59;10.00;;;8.23;;
69799;SDS011;67217;51.008;4.644;2023-02-13T14:24:57;14.70;;;8.53;;
69799;SDS011;67217;51.008;4.644;2023-02-13T14:27:33;9.50;;;8.23;;
69799;SDS011;67217;51.008;4.644;2023-02-13T14:30:03;12.58;;;8.98;;
69799;SDS011;67217;51.008;4.644;2023-02-13T14:32:36;11.38;;;8.18;;
69799;SDS011;67217;51.008;4.644;2023-02-13T14:37:51;10.63;;;8.85;;
69799;SDS011;67217;51.008;4.644;2023-02-13T14:40:41;12.10;;;9.08;;
69799;SDS011;67217;51.008;4.644;2023-02-13T14:43:20;14.10;;;9.43;;
69799;SDS011;67217;51.008;4.644;2023-02-13T14:45:52;15.83;;;9.28;;
69799;SDS011;67217;51.008;4.644;2023-02-13T14:48:23;13.08;;;9.70;;
69799;SDS011;67217;51.008;4.644;2023-02-13T14:51:00;15.85;;;9.30;;
69799;SDS011;67217;51.008;4.644;2023-02-13T14:53:33;16.60;;;9.08;;
69799;SDS011;67217;51.008;4.644;2023-02-13T14:56:20;16.17;;;9.63;;
69799;SDS011;67217;51.008;4.644;2023-02-13T14:58:53;13.35;;;9.85;;
69799;SDS011;67217;51.008;4.644;2023-02-13T15:04:12;13.70;;;9.48;;
69799;SDS011;67217;51.008;4.644;2023-02-13T15:06:42;13.93;;;9.45;;
69799;SDS011;67217;51.008;4.644;2023-02-13T15:09:26;13.53;;;9.93;;
69799;SDS011;67217;51.008;4.644;2023-02-13T15:12:29;13.70;;;9.75;;
69799;SDS011;67217;51.008;4.644;2023-02-13T15:14:58;15.93;;;10.18;;
69799;SDS011;67217;51.008;4.644;2023-02-13T15:17:27;14.07;;;10.03;;
69799;SDS011;67217;51.008;4.644;2023-02-13T15:20:05;14.80;;;9.73;;
69799;SDS011;67217;51.008;4.644;2023-02-13T15:22:31;12.25;;;9.48;;
69799;SDS011;67217;51.008;4.644;2023-02-13T15:25:03;15.85;;;9.93;;
69799;SDS011;67217;51.008;4.644;2023-02-13T15:27:42;15.53;;;9.13;;
69799;SDS011;67217;51.008;4.644;2023-02-13T15:30:20;15.60;;;9.60;;
69799;SDS011;67217;51.008;4.644;2023-02-13T15:32:59;13.45;;;9.80;;
69799;SDS011;67217;51.008;4.644;2023-02-13T15:35:32;14.70;;;9.30;;
69799;SDS011;67217;51.008;4.644;2023-02-13T15:37:57;14.10;;;10.13;;
69799;SDS011;67217;51.008;4.644;2023-02-13T15:40:27;15.17;;;10.50;;
69799;SDS011;67217;51.008;4.644;2023-02-13T15:42:56;17.25;;;10.00;;
69799;SDS011;67217;51.008;4.644;2023-02-13T15:45:26;15.63;;;9.85;;
69799;SDS011;67217;51.008;4.644;2023-02-13T15:47:55;13.98;;;9.78;;
69799;SDS011;67217;51.008;4.644;2023-02-13T15:52:54;13.40;;;9.83;;
69799;SDS011;67217;51.008;4.644;2023-02-13T15:55:24;14.85;;;9.40;;
69799;SDS011;67217;51.008;4.644;2023-02-13T15:57:54;15.00;;;9.75;;
69799;SDS011;67217;51.008;4.644;2023-02-13T16:00:25;19.25;;;10.15;;
69799;SDS011;67217;51.008;4.644;2023-02-13T16:03:00;13.95;;;10.60;;
69799;SDS011;67217;51.008;4.644;2023-02-13T16:05:32;16.62;;;10.82;;
69799;SDS011;67217;51.008;4.644;2023-02-13T16:08:23;15.43;;;9.65;;
69799;SDS011;67217;51.008;4.644;2023-02-13T16:10:32;13.38;;;9.55;;
69799;SDS011;67217;51.008;4.644;2023-02-13T16:13:02;15.75;;;9.75;;
69799;SDS011;67217;51.008;4.644;2023-02-13T16:15:33;13.20;;;9.30;;
69799;SDS011;67217;51.008;4.644;2023-02-13T16:18:02;17.12;;;9.68;;
69799;SDS011;67217;51.008;4.644;2023-02-13T16:20:31;18.52;;;9.90;;
69799;SDS011;67217;51.008;4.644;2023-02-13T16:23:01;15.90;;;9.95;;
69799;SDS011;67217;51.008;4.644;2023-02-13T16:25:37;13.70;;;9.33;;
69799;SDS011;67217;51.008;4.644;2023-02-13T16:28:17;14.35;;;9.30;;
69799;SDS011;67217;51.008;4.644;2023-02-13T16:31:05;13.78;;;9.33;;
69799;SDS011;67217;51.008;4.644;2023-02-13T16:33:27;16.17;;;8.63;;
69799;SDS011;67217;51.008;4.644;2023-02-13T16:35:57;14.38;;;8.43;;
69799;SDS011;67217;51.008;4.644;2023-02-13T16:38:28;13.22;;;8.45;;
69799;SDS011;67217;51.008;4.644;2023-02-13T16:40:59;13.32;;;8.50;;
69799;SDS011;67217;51.008;4.644;2023-02-13T16:43:33;12.80;;;8.28;;
69799;SDS011;67217;51.008;4.644;2023-02-13T16:46:12;11.53;;;8.05;;
69799;SDS011;67217;51.008;4.644;2023-02-13T16:51:35;12.13;;;7.25;;
69799;SDS011;67217;51.008;4.644;2023-02-13T16:56:59;15.38;;;8.48;;
69799;SDS011;67217;51.008;4.644;2023-02-13T16:59:47;19.40;;;8.75;;
69799;SDS011;67217;51.008;4.644;2023-02-13T17:04:49;16.40;;;9.18;;
69799;SDS011;67217;51.008;4.644;2023-02-13T17:07:28;16.85;;;9.70;;
69799;SDS011;67217;51.008;4.644;2023-02-13T17:09:58;16.25;;;8.00;;
69799;SDS011;67217;51.008;4.644;2023-02-13T17:12:30;16.55;;;8.43;;
69799;SDS011;67217;51.008;4.644;2023-02-13T17:15:01;12.10;;;7.83;;